Time;durP1;ratioP1;P1;durP2;ratioP2;P2;SDS_P1;SDS_P2;PMS_P1;PMS_P2;Temp;Humidity;BMP_temperature;BMP_pressure;BME280_temperature;BME280_humidity;BME280_pressure;Samples;Min_cycle;Max_cycle;Signal;HPM_P1;HPM_P2
2023/10/13 00:00:58;;;;;;;;;;;;;;;;;;4985702;28;20056;-91
2023/10/13 00:03:25;;;;;;;;;;;;;;;;;;4983660;28;20053;-91
2023/10/13 00:05:52;;;;;;;;;;;;;;;;;;4982741;28;20411;-91
2023/10/13 00:08:20;;;;;;;;;;;;;;;;;;4982734;28;19976;-93
2023/10/13 00:10:47;;;;;;;;;;;;;;;;;;4987375;28;19921;-92
2023/10/13 00:13:15;;;;;;;;;;;;;;;;;;4981421;28;19926;-93
2023/10/13 00:15:51;;;;;;;;;;;;;;;;;;4983746;28;19947;-91
2023/10/13 00:18:19;;;;;;;;;;;;;;;;;;4986420;28;20420;-91
2023/10/13 00:20:49;;;;;;;;;;;;;;;;;;4984191;28;20056;-92
2023/10/13 00:23:20;;;;;;;;;;;;;;;;;;4980242;28;19918;-91
2023/10/13 00:25:50;;;;;;;;;;;;;;;;;;4981928;28;20358;-92
2023/10/13 00:28:23;;;;;;;;;;;;;;;;;;4998996;28;20603;-91
2023/10/13 00:30:51;;;;;;;;;;;;;;;;;;4979590;28;20271;-90
2023/10/13 00:33:22;;;;;;;;;;;;;;;;;;4979642;28;19913;-91
2023/10/13 00:35:51;;;;;;;;;;;;;;;;;;4978377;28;20297;-92
2023/10/13 00:38:18;;;;;;;;;;;;;;;;;;4981462;28;19924;-91
2023/10/13 00:40:51;;;;;;;;;;;;;;;;;;4983094;28;19918;-91
2023/10/13 00:43:31;;;;;;;;;;;;;;;;;;4982529;28;20054;-90
2023/10/13 00:45:58;;;;;;;;;;;;;;;;;;4981911;28;19936;-91
2023/10/13 00:48:33;;;;;;;;;;;;;;;;;;4983872;28;19917;-92
2023/10/13 00:51:02;;;;;;;;;;;;;;;;;;4985836;28;19924;-93
2023/10/13 00:53:28;;;;;;;;;;;;;;;;;;4999835;28;20405;-90
2023/10/13 00:55:57;;;;;;;;;;;;;;;;;;5001368;28;20056;-91
2023/10/13 00:58:25;;;;;;;;;;;;;;;;;;4983582;28;19924;-91
2023/10/13 01:00:56;;;;;;;;;;;;;;;;;;4989663;28;20120;-91
2023/10/13 01:03:26;;;;;;;;;;;;;;;;;;4985281;28;19917;-94
2023/10/13 01:05:54;;;;;;;;;;;;;;;;;;4983542;28;20016;-91
2023/10/13 01:08:23;;;;;;;;;;;;;;;;;;4982196;28;19950;-92
2023/10/13 01:10:49;;;;;;;;;;;;;;;;;;4986750;28;19922;-92
2023/10/13 01:13:17;;;;;;;;;;;;;;;;;;4985868;28;20020;-91
2023/10/13 01:15:44;;;;;;;;;;;;;;;;;;4980376;28;19951;-91
2023/10/13 01:18:16;;;;;;;;;;;;;;;;;;4983206;28;19914;-91
2023/10/13 01:20:51;;;;;;;;;;;;;;;;;;4975905;28;19924;-90
2023/10/13 01:23:18;;;;;;;;;;;;;;;;;;4984434;28;19918;-92
2023/10/13 01:25:44;;;;;;;;;;;;;;;;;;4984083;28;19920;-93
2023/10/13 01:28:10;;;;;;;;;;;;;;;;;;4985768;28;19917;-91
2023/10/13 01:30:39;;;;;;;;;;;;;;;;;;4986878;28;19975;-91
2023/10/13 01:33:05;;;;;;;;;;;;;;;;;;4983550;28;20374;-91
2023/10/13 01:35:47;;;;;;;;;;;;;;;;;;4982439;28;19920;-90
2023/10/13 01:38:13;;;;;;;;;;;;;;;;;;4982835;28;19914;-93
2023/10/13 01:40:39;;;;;;;;;;;;;;;;;;4982367;28;19953;-92
2023/10/13 01:43:11;;;;;;;;;;;;;;;;;;4999380;28;20362;-93
2023/10/13 01:45:49;;;;;;;;;;;;;;;;;;4982976;28;20584;-93
2023/10/13 01:48:16;;;;;;;;;;;;;;;;;;4982919;28;19917;-93
2023/10/13 01:50:46;;;;;;;;;;;;;;;;;;4979246;28;20306;-93
2023/10/13 01:53:12;;;;;;;;;;;;;;;;;;4980033;28;19999;-92
2023/10/13 01:55:42;;;;;;;;;;;;;;;;;;4981980;28;20357;-92
2023/10/13 01:58:14;;;;;;;;;;;;;;;;;;4983842;28;20883;-92
2023/10/13 02:00:42;;;;;;;;;;;;;;;;;;4981747;28;19973;-92
2023/10/13 02:03:14;;;;;;;;;;;;;;;;;;4984723;28;19922;-93
2023/10/13 02:05:43;;;;;;;;;;;;;;;;;;4984844;28;20436;-93
2023/10/13 02:08:11;;;;;;;;;;;;;;;;;;4983780;28;19976;-92
2023/10/13 02:10:43;;;;;;;;;;;;;;;;;;4986387;28;19929;-93
2023/10/13 02:13:15;;;;;;;;;;;;;;;;;;4984062;28;19914;-92
2023/10/13 02:15:42;;;;;;;;;;;;;;;;;;4989213;28;20347;-91
2023/10/13 02:18:09;;;;;;;;;;;;;;;;;;4983548;28;20405;-93
2023/10/13 02:20:43;;;;;;;;;;;;;;;;;;4985613;28;19924;-93
2023/10/13 02:23:12;;;;;;;;;;;;;;;;;;4987083;28;20366;-93
2023/10/13 02:25:45;;;;;;;;;;;;;;;;;;4982352;28;19925;-93
2023/10/13 02:28:14;;;;;;;;;;;;;;;;;;4983926;28;19913;-94
2023/10/13 02:30:44;;;;;;;;;;;;;;;;;;4982995;28;19921;-94
2023/10/13 02:33:11;;;;;;;;;;;;;;;;;;4983645;28;19944;-93
2023/10/13 02:35:41;;;;;;;;;;;;;;;;;;4981908;28;19964;-93
2023/10/13 02:38:11;;;;;;;;;;;;;;;;;;4983318;28;19913;-93
2023/10/13 02:40:37;;;;;;;;;;;;;;;;;;4987384;28;19957;-94
2023/10/13 02:43:04;;;;;;;;;;;;;;;;;;4986780;28;19952;-92
2023/10/13 02:45:30;;;;;;;;;;;;;;;;;;4984557;28;19921;-92
2023/10/13 02:50:45;;;;;;;;;;;;;;;;;;5000111;28;19923;-92
2023/10/13 02:53:18;;;;;;;;;;;;;;;;;;4987111;28;20016;-93
2023/10/13 02:55:44;;;;;;;;;;;;;;;;;;4987463;28;19917;-92
2023/10/13 02:58:13;;;;;;;;;;;;;;;;;;4984662;28;19922;-91
2023/10/13 03:00:41;;;;;;;;;;;;;;;;;;4986558;28;19925;-91
2023/10/13 03:03:07;;;;;;;;;;;;;;;;;;4988128;28;20023;-92
2023/10/13 03:05:35;;;;;;;;;;;;;;;;;;4984654;28;19926;-92
2023/10/13 03:08:04;;;;;;;;;;;;;;;;;;4979717;28;19920;-91
2023/10/13 03:10:30;;;;;;;;;;;;;;;;;;4981448;28;20008;-92
2023/10/13 03:12:56;;;;;;;;;;;;;;;;;;4983496;28;20036;-91
2023/10/13 03:15:28;;;;;;;;;;;;;;;;;;4983232;28;19921;-91
2023/10/13 03:17:54;;;;;;;;;;;;;;;;;;4982009;28;19921;-91
2023/10/13 03:20:30;;;;;;;;;;;;;;;;;;4985638;28;19924;-90
2023/10/13 03:22:56;;;;;;;;;;;;;;;;;;4981509;28;19929;-91
2023/10/13 03:25:37;;;;;;;;;;;;;;;;;;4983594;28;19913;-90
2023/10/13 03:28:04;;;;;;;;;;;;;;;;;;4981732;28;19945;-91
2023/10/13 03:30:42;;;;;;;;;;;;;;;;;;4982094;28;19918;-90
2023/10/13 03:33:11;;;;;;;;;;;;;;;;;;4983364;28;19975;-92
2023/10/13 03:35:37;;;;;;;;;;;;;;;;;;4985278;28;19953;-92
2023/10/13 03:38:03;;;;;;;;;;;;;;;;;;4982468;28;19922;-92
2023/10/13 03:43:04;;;;;;;;;;;;;;;;;;5001455;28;19914;-91
2023/10/13 03:45:36;;;;;;;;;;;;;;;;;;4984081;28;20520;-91
2023/10/13 03:48:08;;;;;;;;;;;;;;;;;;4983683;28;19918;-91
2023/10/13 03:50:36;;;;;;;;;;;;;;;;;;4979351;28;19926;-91
2023/10/13 03:53:02;;;;;;;;;;;;;;;;;;4981434;28;19941;-90
2023/10/13 03:55:34;;;;;;;;;;;;;;;;;;4982464;28;19953;-91
2023/10/13 03:58:00;;;;;;;;;;;;;;;;;;4982593;28;19922;-91
2023/10/13 04:00:31;;;;;;;;;;;;;;;;;;4980197;28;19929;-91
2023/10/13 04:05:35;;;;;;;;;;;;;;;;;;4993323;28;20294;-91
2023/10/13 04:16:34;;;;;;;;;;;;;;;;;;4999411;28;19925;-90
2023/10/13 04:29:56;;;;;;;;;;;;;;;;;;4924848;29;19923;-91
2023/10/13 04:32:28;;;;;;;;;;;;;;;;;;4986237;28;19979;-90
2023/10/13 04:34:58;;;;;;;;;;;;;;;;;;4984468;28;19928;-90
2023/10/13 04:37:32;;;;;;;;;;;;;;;;;;4986902;28;19917;-89
2023/10/13 04:40:11;;;;;;;;;;;;;;;;;;4984654;28;19914;-91
2023/10/13 04:42:49;;;;;;;;;;;;;;;;;;5003130;28;19922;-91
2023/10/13 04:48:47;;;;;;;;;;;;;;;;;;5003143;28;19924;-90
2023/10/13 04:50:46;;;;;;;;;;;;;;;;;;4981414;28;19922;-90
2023/10/13 04:53:28;;;;;;;;;;;;;;;;;;4986312;28;19917;-90
2023/10/13 05:45:40;;;;;;;;;;;;;;;;;;4996588;28;19925;-90
2023/10/13 05:48:12;;;;;;;;;;;;;;;;;;4981165;28;19932;-90
2023/10/13 05:50:57;;;;;;;;;;;;;;;;;;4984002;28;19928;-90
2023/10/13 06:29:07;;;;;;;;;;;;;;;;;;5002128;28;20093;-90
2023/10/13 06:31:35;;;;;;;;;;;;;;;;;;4984715;28;19952;-90
2023/10/13 06:34:03;;;;;;;;;;;;;;;;;;4984875;28;19913;-89
2023/10/13 06:36:29;;;;;;;;;;;;;;;;;;4981131;28;19917;-92
2023/10/13 06:38:56;;;;;;;;;;;;;;;;;;4984459;28;19925;-89
2023/10/13 06:41:30;;;;;;;;;;;;;;;;;;4981208;28;19918;-89
2023/10/13 06:43:59;;;;;;;;;;;;;;;;;;4981616;28;20089;-89
2023/10/13 06:46:28;;;;;;;;;;;;;;;;;;4979259;28;19914;-89
2023/10/13 06:48:54;;;;;;;;;;;;;;;;;;4981742;28;20008;-89
2023/10/13 06:51:25;;;;;;;;;;;;;;;;;;4984789;28;19984;-90
2023/10/13 06:53:56;;;;;;;;;;;;;;;;;;4988140;28;19917;-89
2023/10/13 06:56:23;;;;;;;;;;;;;;;;;;4988510;28;19913;-89
2023/10/13 06:58:49;;;;;;;;;;;;;;;;;;4986764;28;19917;-89
2023/10/13 07:01:21;;;;;;;;;;;;;;;;;;4987483;28;19920;-89
2023/10/13 07:03:52;;;;;;;;;;;;;;;;;;4988605;28;19921;-89
2023/10/13 07:06:19;;;;;;;;;;;;;;;;;;4985405;28;19926;-90
2023/10/13 07:08:51;;;;;;;;;;;;;;;;;;4982926;28;19913;-89
2023/10/13 07:11:32;;;;;;;;;;;;;;;;;;4983206;28;19969;-89
2023/10/13 07:14:26;;;;;;;;;;;;;;;;;;4428018;27;18045472;-88
2023/10/13 07:16:58;;;;;;;;;;;;;;;;;;5060163;28;20339;-88
2023/10/13 07:19:27;;;;;;;;;;;;;;;;;;5040909;28;19976;-88
2023/10/13 07:21:58;;;;;;;;;;;;;;;;;;5050993;28;19917;-89
2023/10/13 07:24:24;;;;;;;;;;;;;;;;;;5041316;28;19912;-89
2023/10/13 07:27:01;;;;;;;;;;;;;;;;;;5055738;28;20360;-88
2023/10/13 07:29:27;;;;;;;;;;;;;;;;;;5059554;28;19928;-88
2023/10/13 07:31:53;;;;;;;;;;;;;;;;;;5044155;28;20342;-88
2023/10/13 07:37:16;;;;;;;;;;;;;;;;;;5053382;28;19916;-89
2023/10/13 07:39:50;;;;;;;;;;;;;;;;;;5056603;28;19924;-88
2023/10/13 07:42:19;;;;;;;;;;;;;;;;;;5042178;28;20384;-89
2023/10/13 07:44:48;;;;;;;;;;;;;;;;;;5056930;28;19917;-89
2023/10/13 07:47:14;;;;;;;;;;;;;;;;;;5038930;28;19925;-88
2023/10/13 07:49:40;;;;;;;;;;;;;;;;;;5039222;28;19913;-89
2023/10/13 07:52:23;;;;;;;;;;;;;;;;;;5041469;28;19913;-89
2023/10/13 07:54:50;;;;;;;;;;;;;;;;;;5040473;28;19920;-89
2023/10/13 07:57:17;;;;;;;;;;;;;;;;;;5044338;28;20007;-88
2023/10/13 08:00:04;;;;;;;;;;;;;;;;;;5027255;28;19952;-90
2023/10/13 08:02:47;;;;;;;;;;;;;;;;;;5020489;28;19921;-89
2023/10/13 08:05:24;;;;;;;;;;;;;;;;;;5026687;28;20404;-89
2023/10/13 08:07:50;;;;;;;;;;;;;;;;;;5022323;28;19932;-89
2023/10/13 08:10:24;;;;;;;;;;;;;;;;;;5028783;28;19913;-89
2023/10/13 08:12:51;;;;;;;;;;;;;;;;;;5027601;27;20427;-89
2023/10/13 08:15:26;;;;;;;;;;;;;;;;;;5016472;28;19917;-89
2023/10/13 08:17:53;;;;;;;;;;;;;;;;;;5023500;28;19921;-89
2023/10/13 08:20:21;;;;;;;;;;;;;;;;;;5020311;28;19924;-89
2023/10/13 08:22:47;;;;;;;;;;;;;;;;;;5021284;28;19925;-89
2023/10/13 08:26:16;;;;;;;;;;;;;;;;;;5009902;28;19913;-89
2023/10/13 08:28:48;;;;;;;;;;;;;;;;;;5010644;28;19922;-88
2023/10/13 08:31:14;;;;;;;;;;;;;;;;;;5012728;28;19913;-89
2023/10/13 08:33:49;;;;;;;;;;;;;;;;;;5014035;28;19917;-89
2023/10/13 08:36:27;;;;;;;;;;;;;;;;;;5009198;28;20072;-89
2023/10/13 08:38:55;;;;;;;;;;;;;;;;;;5011454;28;19928;-89
2023/10/13 08:43:53;;;;;;;;;;;;;;;;;;5010858;28;20004;-89
2023/10/13 08:46:38;;;;;;;;;;;;;;;;;;5012360;28;19918;-89
2023/10/13 08:49:05;;;;;;;;;;;;;;;;;;5009357;28;19913;-89
2023/10/13 08:51:43;;;;;;;;;;;;;;;;;;5008429;28;19929;-89
2023/10/13 08:54:18;;;;;;;;;;;;;;;;;;5011660;28;19926;-89
2023/10/13 08:56:54;;;;;;;;;;;;;;;;;;5010652;28;19913;-89
2023/10/13 08:59:33;;;;;;;;;;;;;;;;;;5008898;28;19920;-88
2023/10/13 09:02:15;;;;;;;;;;;;;;;;;;5005182;28;20012;-88
2023/10/13 09:04:44;;;;;;;;;;;;;;;;;;5004708;28;20087;-88
2023/10/13 09:07:15;;;;;;;;;;;;;;;;;;5008408;28;19921;-88
2023/10/13 09:09:59;;;;;;;;;;;;;;;;;;5009193;28;20366;-88
2023/10/13 09:15:17;;;;;;;;;;;;;;;;;;5007558;28;19922;-90
2023/10/13 09:25:37;;;;;;;;;;;;;;;;;;5003904;28;19914;-93
2023/10/13 09:28:14;;;;;;;;;;;;;;;;;;5003984;28;19947;-89
2023/10/13 09:30:40;;;;;;;;;;;;;;;;;;5001785;28;20266;-89
2023/10/13 09:33:08;;;;;;;;;;;;;;;;;;5003244;28;19917;-88
2023/10/13 09:35:36;;;;;;;;;;;;;;;;;;4997022;28;20314;-90
2023/10/13 09:38:02;;;;;;;;;;;;;;;;;;5009515;28;20543;-89
2023/10/13 09:40:34;;;;;;;;;;;;;;;;;;4991218;28;19917;-88
2023/10/13 09:43:05;;;;;;;;;;;;;;;;;;5004603;28;19983;-88
2023/10/13 09:45:43;;;;;;;;;;;;;;;;;;4986112;28;19913;-89
2023/10/13 09:48:11;;;;;;;;;;;;;;;;;;4983844;28;19985;-89
2023/10/13 09:50:44;;;;;;;;;;;;;;;;;;4993290;28;19936;-89
2023/10/13 09:53:10;;;;;;;;;;;;;;;;;;4996831;28;19925;-89
2023/10/13 09:55:39;;;;;;;;;;;;;;;;;;5004176;28;20365;-89
2023/10/13 09:58:14;;;;;;;;;;;;;;;;;;4982121;28;19925;-88
2023/10/13 10:01:06;;;;;;;;;;;;;;;;;;5004235;28;20380;-88
2023/10/13 10:06:06;;;;;;;;;;;;;;;;;;5004618;28;20060;-89
2023/10/13 10:08:35;;;;;;;;;;;;;;;;;;5006801;28;19913;-91
2023/10/13 10:11:01;;;;;;;;;;;;;;;;;;5002633;28;19923;-90
2023/10/13 10:13:30;;;;;;;;;;;;;;;;;;5022166;28;19925;-90
2023/10/13 10:15:56;;;;;;;;;;;;;;;;;;5022333;28;19947;-90
2023/10/13 10:18:25;;;;;;;;;;;;;;;;;;5025296;28;20004;-87
2023/10/13 10:20:57;;;;;;;;;;;;;;;;;;5023195;28;20289;-88
2023/10/13 10:23:23;;;;;;;;;;;;;;;;;;5024143;28;20411;-88
2023/10/13 10:25:51;;;;;;;;;;;;;;;;;;5020377;28;20389;-88
2023/10/13 10:28:19;;;;;;;;;;;;;;;;;;5020259;28;19928;-88
2023/10/13 10:30:45;;;;;;;;;;;;;;;;;;5014996;28;20297;-87
2023/10/13 10:33:15;;;;;;;;;;;;;;;;;;5017902;28;19924;-87
2023/10/13 10:35:42;;;;;;;;;;;;;;;;;;5021191;28;19917;-88
2023/10/13 10:38:13;;;;;;;;;;;;;;;;;;5025218;28;19927;-88
2023/10/13 10:40:47;;;;;;;;;;;;;;;;;;5022107;28;19913;-88
2023/10/13 10:43:17;;;;;;;;;;;;;;;;;;5005230;28;19917;-88
2023/10/13 10:45:45;;;;;;;;;;;;;;;;;;5022197;28;20353;-88
2023/10/13 10:48:21;;;;;;;;;;;;;;;;;;5019045;28;19943;-88
2023/10/13 10:50:47;;;;;;;;;;;;;;;;;;5022696;28;19917;-88
2023/10/13 10:53:13;;;;;;;;;;;;;;;;;;5023993;28;20234;-88
2023/10/13 10:55:38;;;;;;;;;;;;;;;;;;5007136;28;20380;-88
2023/10/13 10:58:28;;;;;;;;;;;;;;;;;;5023154;28;19925;-88
2023/10/13 11:01:01;;;;;;;;;;;;;;;;;;5022944;28;20372;-89
2023/10/13 11:03:27;;;;;;;;;;;;;;;;;;5019273;28;20013;-89
2023/10/13 11:05:53;;;;;;;;;;;;;;;;;;5006760;28;19914;-88
2023/10/13 11:08:24;;;;;;;;;;;;;;;;;;5006535;28;19978;-89
2023/10/13 11:10:50;;;;;;;;;;;;;;;;;;5024501;28;19940;-88
2023/10/13 11:13:22;;;;;;;;;;;;;;;;;;5019394;28;20231;-88
2023/10/13 11:15:48;;;;;;;;;;;;;;;;;;4995637;28;20314;-88
2023/10/13 11:18:20;;;;;;;;;;;;;;;;;;5023441;28;19913;-89
2023/10/13 11:20:46;;;;;;;;;;;;;;;;;;5009307;28;20017;-89
2023/10/13 11:23:12;;;;;;;;;;;;;;;;;;5026091;28;20663;-89
2023/10/13 11:25:39;;;;;;;;;;;;;;;;;;5026538;28;19952;-89
2023/10/13 11:28:06;;;;;;;;;;;;;;;;;;5024474;28;19952;-89
2023/10/13 11:33:05;;;;;;;;;;;;;;;;;;5027943;28;19924;-89
2023/10/13 11:35:48;;;;;;;;;;;;;;;;;;5024869;28;20293;-88
2023/10/13 11:38:15;;;;;;;;;;;;;;;;;;5022209;28;20296;-89
2023/10/13 11:41:06;;;;;;;;;;;;;;;;;;5007232;28;20004;-89
2023/10/13 11:43:35;;;;;;;;;;;;;;;;;;5031863;28;20004;-89
2023/10/13 11:46:14;;;;;;;;;;;;;;;;;;5026057;28;19948;-88
2023/10/13 11:48:41;;;;;;;;;;;;;;;;;;5020099;28;19939;-89
2023/10/13 11:51:07;;;;;;;;;;;;;;;;;;5021544;28;20372;-88
2023/10/13 11:53:34;;;;;;;;;;;;;;;;;;5023825;28;20012;-89
2023/10/13 11:56:00;;;;;;;;;;;;;;;;;;5023937;28;20373;-89
2023/10/13 11:58:28;;;;;;;;;;;;;;;;;;5013735;28;19917;-89
2023/10/13 12:01:01;;;;;;;;;;;;;;;;;;5025399;28;20385;-89
2023/10/13 12:09:10;;;;;;;;;;;;;;;;;;5030308;28;19928;-90
2023/10/13 12:11:39;;;;;;;;;;;;;;;;;;5012532;28;20335;-89
2023/10/13 12:14:19;;;;;;;;;;;;;;;;;;5023898;28;19935;-89
2023/10/13 12:16:48;;;;;;;;;;;;;;;;;;5028033;28;19924;-89
2023/10/13 12:19:16;;;;;;;;;;;;;;;;;;5029733;28;20400;-89
2023/10/13 12:21:43;;;;;;;;;;;;;;;;;;5012354;28;19924;-90
2023/10/13 12:24:22;;;;;;;;;;;;;;;;;;5030882;28;19944;-89
2023/10/13 12:26:48;;;;;;;;;;;;;;;;;;5013525;28;19913;-89
2023/10/13 12:29:22;;;;;;;;;;;;;;;;;;5011890;28;19913;-88
2023/10/13 12:32:01;;;;;;;;;;;;;;;;;;5026563;28;19917;-90
2023/10/13 12:34:56;;;;;;;;;;;;;;;;;;5025262;28;19998;-89
2023/10/13 12:51:07;;;;;;;;;;;;;;;;;;5026218;28;20011;-88
2023/10/13 12:53:33;;;;;;;;;;;;;;;;;;5015278;28;19920;-89
2023/10/13 12:56:03;;;;;;;;;;;;;;;;;;5010977;28;19921;-89
2023/10/13 12:58:32;;;;;;;;;;;;;;;;;;5025328;28;20431;-89
2023/10/13 13:01:06;;;;;;;;;;;;;;;;;;5026080;28;20451;-89
2023/10/13 13:03:32;;;;;;;;;;;;;;;;;;5026282;28;20004;-89
2023/10/13 13:05:58;;;;;;;;;;;;;;;;;;5024413;28;20401;-89
2023/10/13 13:08:24;;;;;;;;;;;;;;;;;;5026742;28;20376;-88
2023/10/13 13:10:51;;;;;;;;;;;;;;;;;;5028234;28;19921;-88
2023/10/13 13:13:24;;;;;;;;;;;;;;;;;;5011574;28;20241;-89
2023/10/13 13:16:11;;;;;;;;;;;;;;;;;;5022639;28;19918;-88
2023/10/13 13:18:36;;;;;;;;;;;;;;;;;;5025950;28;19921;-89
2023/10/13 13:21:06;;;;;;;;;;;;;;;;;;5027411;28;19921;-88
2023/10/13 13:23:34;;;;;;;;;;;;;;;;;;5010626;28;19972;-88
2023/10/13 13:26:00;;;;;;;;;;;;;;;;;;5016205;28;19913;-89
2023/10/13 13:28:28;;;;;;;;;;;;;;;;;;5022054;28;19951;-89
2023/10/13 13:30:54;;;;;;;;;;;;;;;;;;5010750;28;20198;-89
2023/10/13 13:33:25;;;;;;;;;;;;;;;;;;5006037;28;19929;-89
2023/10/13 13:35:51;;;;;;;;;;;;;;;;;;5025650;28;19920;-88
2023/10/13 13:38:40;;;;;;;;;;;;;;;;;;5008262;28;19917;-87
2023/10/13 13:41:09;;;;;;;;;;;;;;;;;;5026322;28;19917;-89
2023/10/13 13:43:38;;;;;;;;;;;;;;;;;;5006692;28;19996;-88
2023/10/13 13:46:08;;;;;;;;;;;;;;;;;;5013865;28;19959;-89
2023/10/13 13:48:34;;;;;;;;;;;;;;;;;;5005842;28;19917;-90
2023/10/13 13:51:04;;;;;;;;;;;;;;;;;;5011218;28;19920;-90
2023/10/13 13:53:32;;;;;;;;;;;;;;;;;;5016015;28;20162;-90
2023/10/13 13:55:58;;;;;;;;;;;;;;;;;;5028123;28;19920;-90
2023/10/13 13:58:25;;;;;;;;;;;;;;;;;;5008840;28;19947;-90
2023/10/13 14:00:51;;;;;;;;;;;;;;;;;;5015208;28;20352;-90
2023/10/13 14:03:32;;;;;;;;;;;;;;;;;;5020808;28;19932;-90
2023/10/13 14:05:58;;;;;;;;;;;;;;;;;;5006659;28;20392;-89
2023/10/13 14:08:25;;;;;;;;;;;;;;;;;;5009523;28;19913;-90
2023/10/13 14:16:22;;;;;;;;;;;;;;;;;;5022981;28;19963;-90
2023/10/13 14:18:48;;;;;;;;;;;;;;;;;;5027670;28;20332;-90
2023/10/13 14:21:18;;;;;;;;;;;;;;;;;;5025388;28;20369;-90
2023/10/13 14:23:45;;;;;;;;;;;;;;;;;;5007741;28;19929;-90
2023/10/13 14:26:12;;;;;;;;;;;;;;;;;;5004987;28;20357;-90
2023/10/13 14:28:47;;;;;;;;;;;;;;;;;;5029886;28;19913;-90
2023/10/13 14:31:13;;;;;;;;;;;;;;;;;;5028200;28;19913;-89
2023/10/13 14:33:39;;;;;;;;;;;;;;;;;;5012802;28;19956;-90
2023/10/13 14:36:05;;;;;;;;;;;;;;;;;;5010150;28;19937;-90
2023/10/13 14:38:31;;;;;;;;;;;;;;;;;;5008368;28;20136;-90
2023/10/13 14:41:00;;;;;;;;;;;;;;;;;;5012246;28;19909;-90
2023/10/13 14:43:27;;;;;;;;;;;;;;;;;;5010700;28;19960;-90
2023/10/13 14:45:53;;;;;;;;;;;;;;;;;;5015587;28;19926;-89
2023/10/13 14:48:19;;;;;;;;;;;;;;;;;;5008002;28;19921;-90
2023/10/13 14:50:45;;;;;;;;;;;;;;;;;;5009097;28;20312;-90
2023/10/13 14:53:11;;;;;;;;;;;;;;;;;;5005946;28;19913;-90
2023/10/13 14:55:39;;;;;;;;;;;;;;;;;;5024757;28;20675;-90
2023/10/13 14:58:07;;;;;;;;;;;;;;;;;;5027089;28;19909;-93
2023/10/13 15:00:36;;;;;;;;;;;;;;;;;;5023532;28;19993;-92
2023/10/13 15:03:06;;;;;;;;;;;;;;;;;;5024429;28;19936;-93
2023/10/13 15:05:35;;;;;;;;;;;;;;;;;;5009344;28;20364;-92
2023/10/13 15:08:03;;;;;;;;;;;;;;;;;;5007325;28;19913;-92
2023/10/13 15:10:29;;;;;;;;;;;;;;;;;;5022657;28;20262;-90
2023/10/13 15:12:55;;;;;;;;;;;;;;;;;;5003041;28;19917;-91
2023/10/13 15:15:21;;;;;;;;;;;;;;;;;;5009011;28;19925;-90
2023/10/13 15:17:47;;;;;;;;;;;;;;;;;;5008432;28;19917;-91
2023/10/13 15:20:17;;;;;;;;;;;;;;;;;;5007256;28;19955;-89
2023/10/13 15:22:43;;;;;;;;;;;;;;;;;;5007187;28;20435;-88
2023/10/13 15:25:16;;;;;;;;;;;;;;;;;;5004270;28;20490;-88
2023/10/13 15:27:44;;;;;;;;;;;;;;;;;;5006067;28;19921;-87
2023/10/13 15:30:20;;;;;;;;;;;;;;;;;;5007863;28;19959;-89
2023/10/13 15:32:48;;;;;;;;;;;;;;;;;;5011967;28;19968;-89
2023/10/13 15:35:14;;;;;;;;;;;;;;;;;;5008739;28;19956;-89
2023/10/13 15:37:41;;;;;;;;;;;;;;;;;;5009170;28;20310;-90
2023/10/13 15:40:15;;;;;;;;;;;;;;;;;;5011128;28;19936;-90
2023/10/13 15:42:41;;;;;;;;;;;;;;;;;;5032429;28;19921;-90
2023/10/13 15:45:16;;;;;;;;;;;;;;;;;;5011086;28;20272;-90
2023/10/13 15:47:45;;;;;;;;;;;;;;;;;;5009799;28;19963;-90
2023/10/13 15:50:15;;;;;;;;;;;;;;;;;;5010071;28;19951;-91
2023/10/13 15:52:45;;;;;;;;;;;;;;;;;;5019879;28;19928;-90
2023/10/13 15:55:13;;;;;;;;;;;;;;;;;;5010020;28;20006;-91
2023/10/13 15:57:39;;;;;;;;;;;;;;;;;;5016802;28;20270;-90
2023/10/13 16:00:22;;;;;;;;;;;;;;;;;;5011221;28;19919;-90
2023/10/13 16:02:50;;;;;;;;;;;;;;;;;;5024903;28;19913;-90
2023/10/13 16:05:16;;;;;;;;;;;;;;;;;;5014185;28;19976;-90
2023/10/13 16:07:42;;;;;;;;;;;;;;;;;;5010553;28;19917;-90
2023/10/13 16:10:11;;;;;;;;;;;;;;;;;;5013367;28;20111;-89
2023/10/13 16:12:37;;;;;;;;;;;;;;;;;;5030320;28;20395;-89
2023/10/13 16:15:05;;;;;;;;;;;;;;;;;;5015236;28;19929;-89
2023/10/13 16:17:31;;;;;;;;;;;;;;;;;;5028218;28;19959;-89
2023/10/13 16:19:57;;;;;;;;;;;;;;;;;;5011101;28;20518;-89
2023/10/13 16:22:32;;;;;;;;;;;;;;;;;;5013368;28;20024;-90
2023/10/13 16:24:59;;;;;;;;;;;;;;;;;;5013035;28;20304;-90
2023/10/13 16:27:25;;;;;;;;;;;;;;;;;;5033781;28;19985;-90
2023/10/13 16:29:50;;;;;;;;;;;;;;;;;;5014014;28;20016;-90
2023/10/13 16:32:16;;;;;;;;;;;;;;;;;;5012693;28;19921;-90
2023/10/13 16:34:42;;;;;;;;;;;;;;;;;;5010227;28;20390;-90
2023/10/13 16:37:08;;;;;;;;;;;;;;;;;;5014350;28;20012;-90
2023/10/13 16:39:39;;;;;;;;;;;;;;;;;;5009889;28;20025;-89
2023/10/13 16:42:07;;;;;;;;;;;;;;;;;;5016691;28;19917;-89
2023/10/13 16:44:38;;;;;;;;;;;;;;;;;;5007875;28;20011;-90
2023/10/13 16:47:04;;;;;;;;;;;;;;;;;;5014042;28;20358;-89
2023/10/13 16:49:30;;;;;;;;;;;;;;;;;;5011216;28;20007;-90
2023/10/13 16:51:56;;;;;;;;;;;;;;;;;;5025985;28;19917;-89
2023/10/13 16:54:22;;;;;;;;;;;;;;;;;;5012917;28;19924;-90
2023/10/13 16:56:48;;;;;;;;;;;;;;;;;;5013065;28;19917;-89
2023/10/13 16:59:14;;;;;;;;;;;;;;;;;;5024280;28;19922;-90
2023/10/13 17:01:40;;;;;;;;;;;;;;;;;;5009459;28;19924;-90
2023/10/13 17:04:15;;;;;;;;;;;;;;;;;;5010041;28;19917;-90
2023/10/13 17:06:42;;;;;;;;;;;;;;;;;;5028171;28;19917;-91
2023/10/13 17:09:11;;;;;;;;;;;;;;;;;;5008092;28;19924;-89
2023/10/13 17:11:40;;;;;;;;;;;;;;;;;;5010066;28;19960;-90
2023/10/13 17:14:06;;;;;;;;;;;;;;;;;;5007937;28;19929;-89
2023/10/13 17:16:32;;;;;;;;;;;;;;;;;;4988462;28;19924;-90
2023/10/13 17:18:58;;;;;;;;;;;;;;;;;;4984683;28;19914;-91
2023/10/13 17:21:24;;;;;;;;;;;;;;;;;;4987537;28;20028;-91
2023/10/13 17:23:50;;;;;;;;;;;;;;;;;;4984987;28;19944;-92
2023/10/13 17:26:16;;;;;;;;;;;;;;;;;;5009618;28;20366;-92
2023/10/13 17:28:42;;;;;;;;;;;;;;;;;;4984104;28;20507;-92
2023/10/13 17:31:08;;;;;;;;;;;;;;;;;;4992155;28;19960;-92
2023/10/13 17:33:38;;;;;;;;;;;;;;;;;;4987613;28;19933;-92
2023/10/13 17:36:06;;;;;;;;;;;;;;;;;;4990075;28;19968;-92
2023/10/13 17:38:32;;;;;;;;;;;;;;;;;;4990121;28;20423;-92
2023/10/13 17:40:59;;;;;;;;;;;;;;;;;;4988549;28;20041;-91
2023/10/13 17:43:25;;;;;;;;;;;;;;;;;;4987126;28;20633;-92
2023/10/13 17:45:51;;;;;;;;;;;;;;;;;;4989643;28;19929;-92
2023/10/13 17:48:17;;;;;;;;;;;;;;;;;;4990867;28;19918;-91
2023/10/13 17:50:43;;;;;;;;;;;;;;;;;;5005161;28;19922;-91
2023/10/13 17:53:10;;;;;;;;;;;;;;;;;;4979877;28;20336;-92
2023/10/13 17:55:36;;;;;;;;;;;;;;;;;;4985436;28;20365;-92
2023/10/13 17:58:05;;;;;;;;;;;;;;;;;;4982640;28;19913;-92
2023/10/13 18:00:31;;;;;;;;;;;;;;;;;;4989475;28;19914;-91
2023/10/13 18:02:57;;;;;;;;;;;;;;;;;;4984682;28;20318;-92
2023/10/13 18:05:23;;;;;;;;;;;;;;;;;;4988870;28;19917;-93
2023/10/13 18:07:49;;;;;;;;;;;;;;;;;;4981299;28;19983;-92
2023/10/13 18:10:15;;;;;;;;;;;;;;;;;;4988591;28;19914;-93
2023/10/13 18:12:41;;;;;;;;;;;;;;;;;;4987904;28;20392;-92
2023/10/13 18:15:13;;;;;;;;;;;;;;;;;;4994802;28;20182;-92
2023/10/13 18:17:39;;;;;;;;;;;;;;;;;;5002852;28;19944;-89
2023/10/13 18:20:09;;;;;;;;;;;;;;;;;;4999238;28;20304;-89
2023/10/13 18:22:37;;;;;;;;;;;;;;;;;;5001068;28;19924;-89
2023/10/13 18:25:04;;;;;;;;;;;;;;;;;;5001376;28;20337;-89
2023/10/13 18:27:30;;;;;;;;;;;;;;;;;;4997884;28;20358;-90
2023/10/13 18:29:56;;;;;;;;;;;;;;;;;;5003284;28;19921;-90
2023/10/13 18:32:22;;;;;;;;;;;;;;;;;;4999342;28;19918;-90
2023/10/13 18:34:48;;;;;;;;;;;;;;;;;;4999748;28;19925;-89
2023/10/13 18:37:14;;;;;;;;;;;;;;;;;;5001709;28;20446;-88
2023/10/13 18:39:40;;;;;;;;;;;;;;;;;;5003833;28;19921;-90
2023/10/13 18:42:06;;;;;;;;;;;;;;;;;;5004908;28;20384;-90
2023/10/13 18:44:35;;;;;;;;;;;;;;;;;;4995274;28;19918;-90
2023/10/13 18:47:01;;;;;;;;;;;;;;;;;;5000942;28;20329;-90
2023/10/13 18:49:27;;;;;;;;;;;;;;;;;;5003773;28;19921;-90
2023/10/13 18:51:55;;;;;;;;;;;;;;;;;;4983748;28;19924;-90
2023/10/13 18:54:21;;;;;;;;;;;;;;;;;;4999370;28;20386;-90
2023/10/13 18:56:50;;;;;;;;;;;;;;;;;;4989788;28;19918;-90
2023/10/13 18:59:18;;;;;;;;;;;;;;;;;;4989462;28;20119;-90
2023/10/13 19:01:45;;;;;;;;;;;;;;;;;;5002685;28;19918;-90
2023/10/13 19:04:15;;;;;;;;;;;;;;;;;;5001856;28;20020;-90
2023/10/13 19:06:41;;;;;;;;;;;;;;;;;;4988054;28;20055;-90
2023/10/13 19:09:08;;;;;;;;;;;;;;;;;;4987982;28;20376;-90
2023/10/13 19:11:37;;;;;;;;;;;;;;;;;;5004650;28;19931;-89
2023/10/13 19:14:03;;;;;;;;;;;;;;;;;;5002803;28;20016;-90
2023/10/13 19:16:30;;;;;;;;;;;;;;;;;;5021484;28;20000;-90
2023/10/13 19:19:03;;;;;;;;;;;;;;;;;;5004332;28;20210;-90
2023/10/13 19:21:29;;;;;;;;;;;;;;;;;;5018623;28;19914;-90
2023/10/13 19:23:55;;;;;;;;;;;;;;;;;;5005303;28;19921;-90
2023/10/13 19:26:24;;;;;;;;;;;;;;;;;;5015788;28;19920;-91
2023/10/13 19:28:50;;;;;;;;;;;;;;;;;;5017061;28;19920;-90
2023/10/13 19:31:16;;;;;;;;;;;;;;;;;;5015127;28;20270;-91
2023/10/13 19:33:43;;;;;;;;;;;;;;;;;;5019250;28;19918;-90
2023/10/13 19:36:11;;;;;;;;;;;;;;;;;;5000405;28;19948;-90
2023/10/13 19:38:39;;;;;;;;;;;;;;;;;;5005544;28;19913;-89
2023/10/13 19:41:04;;;;;;;;;;;;;;;;;;5004969;28;19913;-88
2023/10/13 19:43:31;;;;;;;;;;;;;;;;;;5012497;28;19925;-90